createdAt,value
2022-09-09T00:01:54.051Z,100482.94
2022-09-09T00:04:30.127Z,100513.25
2022-09-09T00:07:08.021Z,100506.19
2022-09-09T00:09:49.745Z,100517.69
2022-09-09T00:15:08.349Z,100513.28
2022-09-09T00:17:42.541Z,100526.47
2022-09-09T00:20:17.637Z,100526.47
2022-09-09T00:22:53.949Z,100518.69
2022-09-09T00:25:31.210Z,100515.09
2022-09-09T00:28:00.527Z,100525.47
2022-09-09T00:30:34.459Z,100527.25
2022-09-09T00:33:13.925Z,100534.03
2022-09-09T00:35:47.426Z,100525.44
2022-09-09T00:38:19.437Z,100525.47
2022-09-09T00:40:59.794Z,100532.38
2022-09-09T00:43:32.942Z,100544.44
2022-09-09T00:46:23.733Z,100542.78
2022-09-09T00:49:16.038Z,100530.06
2022-09-09T00:51:54.575Z,100536.03
2022-09-09T00:54:43.220Z,100535.97
2022-09-09T00:57:28.765Z,100541.78
2022-09-09T01:00:20.468Z,100539.00
2022-09-09T01:02:59.858Z,100540.72
2022-09-09T01:05:37.814Z,100543.22
2022-09-09T01:08:19.408Z,100538.91
2022-09-09T01:10:53.848Z,100554.38
2022-09-09T01:13:31.645Z,100552.78
2022-09-09T01:16:06.681Z,100557.84
2022-09-09T01:18:43.600Z,100555.38
2022-09-09T01:21:21.573Z,100552.72
2022-09-09T01:24:12.818Z,100565.69
2022-09-09T01:27:10.379Z,100563.94
2022-09-09T01:29:40.498Z,100566.44
2022-09-09T01:32:39.898Z,100565.88
2022-09-09T01:35:12.267Z,100570.16
2022-09-09T01:37:46.606Z,100574.38
2022-09-09T01:40:15.978Z,100547.69
2022-09-09T01:42:47.153Z,100574.47
2022-09-09T01:45:16.477Z,100565.75
2022-09-09T01:47:47.364Z,100577.78
2022-09-09T01:50:23.074Z,100578.66
2022-09-09T01:52:57.600Z,100580.38
2022-09-09T01:55:36.813Z,100580.38
2022-09-09T01:58:20.136Z,100586.34
2022-09-09T02:01:04.980Z,100588.13
2022-09-09T02:03:40.785Z,100591.41
2022-09-09T02:06:28.034Z,100592.25
2022-09-09T02:09:07.050Z,100582.56
2022-09-09T02:11:37.790Z,100597.00
2022-09-09T02:14:24.394Z,100595.28
2022-09-09T02:16:59.915Z,100593.44
2022-09-09T02:19:41.997Z,100598.38
2022-09-09T02:22:29.330Z,100593.94
2022-09-09T02:25:01.996Z,100593.78
2022-09-09T02:27:33.121Z,100603.06
2022-09-09T02:30:07.026Z,100596.00
2022-09-09T02:32:47.036Z,100600.06
2022-09-09T02:35:27.170Z,100619.78
2022-09-09T02:38:00.061Z,100593.84
2022-09-09T02:40:30.045Z,100612.06
2022-09-09T02:43:03.651Z,100623.22
2022-09-09T02:45:45.017Z,100625.16
2022-09-09T02:48:23.458Z,100631.28
2022-09-09T02:51:07.168Z,100627.00
2022-09-09T02:53:57.575Z,100622.78
2022-09-09T02:56:32.009Z,100635.09
2022-09-09T02:59:08.244Z,100640.41
2022-09-09T03:01:41.809Z,100642.97
2022-09-09T03:04:12.741Z,100625.72
2022-09-09T03:06:42.522Z,100643.09
2022-09-09T03:09:24.805Z,100637.78
2022-09-09T03:11:55.616Z,100647.19
2022-09-09T03:14:31.791Z,100649.59
2022-09-09T03:17:03.339Z,100658.06
2022-09-09T03:19:38.801Z,100649.59
2022-09-09T03:22:14.265Z,100654.03
2022-09-09T03:24:52.426Z,100649.91
2022-09-09T03:27:21.931Z,100657.72
2022-09-09T03:29:52.179Z,100654.13
2022-09-09T03:35:04.035Z,100655.84
2022-09-09T03:37:33.862Z,100661.69
2022-09-09T03:40:03.656Z,100657.34
2022-09-09T03:42:33.548Z,100667.28
2022-09-09T03:45:11.227Z,100673.13
2022-09-09T03:47:45.014Z,100674.56
2022-09-09T03:50:14.496Z,100671.13
2022-09-09T03:52:49.047Z,100684.72
2022-09-09T03:55:23.906Z,100676.31
2022-09-09T03:57:58.843Z,100684.63
2022-09-09T04:00:32.986Z,100688.09
2022-09-09T04:03:04.083Z,100684.91
2022-09-09T04:05:40.561Z,100694.78
2022-09-09T04:08:09.779Z,100688.06
2022-09-09T04:10:39.046Z,100692.38
2022-09-09T04:13:13.360Z,100688.91
2022-09-09T04:15:42.773Z,100691.50
2022-09-09T04:18:19.395Z,100694.19
2022-09-09T04:20:52.046Z,100686.56
2022-09-09T04:23:24.757Z,100691.84
2022-09-09T04:25:55.731Z,100688.56
2022-09-09T04:28:27.697Z,100692.13
2022-09-09T04:30:57.437Z,100695.69
2022-09-09T04:33:38.149Z,100687.25
2022-09-09T04:36:09.812Z,100681.25
2022-09-09T04:38:39.094Z,100693.50
2022-09-09T04:41:11.577Z,100694.44
2022-09-09T04:43:48.247Z,100692.00
2022-09-09T04:46:18.629Z,100699.81
2022-09-09T04:48:57.283Z,100697.47
2022-09-09T04:51:31.731Z,100694.19
2022-09-09T04:54:01.189Z,100705.34
2022-09-09T04:56:30.285Z,100707.91
2022-09-09T04:59:08.338Z,100706.31
2022-09-09T05:01:47.089Z,100717.63
2022-09-09T05:04:20.095Z,100711.69
2022-09-09T05:06:49.429Z,100712.66
2022-09-09T05:09:18.666Z,100717.88
2022-09-09T05:11:55.317Z,100715.38
2022-09-09T05:14:38.085Z,100669.56
2022-09-09T05:17:08.571Z,100724.09
2022-09-09T05:19:41.782Z,100726.81
2022-09-09T05:22:12.393Z,100729.38
2022-09-09T05:24:46.603Z,100719.16
2022-09-09T05:27:15.721Z,100724.47
2022-09-09T05:29:45.408Z,100729.72
2022-09-09T05:32:17.891Z,100729.81
2022-09-09T05:34:54.610Z,100702.16
2022-09-09T05:37:24.409Z,100722.28
2022-09-09T05:39:53.903Z,100727.47
2022-09-09T05:42:23.397Z,100721.38
2022-09-09T05:44:54.872Z,100737.06
2022-09-09T05:47:23.904Z,100738.16
2022-09-09T05:49:54.950Z,100732.09
2022-09-09T05:52:26.786Z,100735.72
2022-09-09T05:55:02.928Z,100731.41
2022-09-09T05:57:32.217Z,100728.97
2022-09-09T06:00:03.267Z,100732.44
2022-09-09T06:02:46.416Z,100705.66
2022-09-09T06:05:18.806Z,100729.03
2022-09-09T06:07:48.874Z,100731.66
2022-09-09T06:10:18.251Z,100739.50
2022-09-09T06:12:55.793Z,100742.97
2022-09-09T06:15:30.436Z,100746.56
2022-09-09T06:17:59.964Z,100736.28
2022-09-09T06:20:32.653Z,100754.41
2022-09-09T06:23:07.288Z,100743.22
2022-09-09T06:25:36.861Z,100756.97
2022-09-09T06:28:05.938Z,100751.81
2022-09-09T06:33:22.070Z,100759.88
2022-09-09T06:35:58.680Z,100744.56
2022-09-09T06:38:28.381Z,100753.38
2022-09-09T06:40:58.818Z,100757.03
2022-09-09T06:43:32.953Z,100752.72
2022-09-09T06:46:07.007Z,100747.59
2022-09-09T06:48:37.061Z,100727.78
2022-09-09T06:51:11.738Z,100737.34
2022-09-09T06:53:43.278Z,100754.66
2022-09-09T06:56:26.128Z,100760.75
2022-09-09T06:59:00.714Z,100727.16
2022-09-09T07:01:34.111Z,100755.56
2022-09-09T07:04:08.674Z,100736.53
2022-09-09T07:06:43.732Z,100755.47
2022-09-09T07:09:16.908Z,100758.94
2022-09-09T07:11:51.230Z,100783.09
2022-09-09T07:14:22.589Z,100768.50
2022-09-09T07:16:59.833Z,100781.47
2022-09-09T07:19:35.130Z,100762.63
2022-09-09T07:22:11.369Z,100780.78
2022-09-09T07:24:40.868Z,100782.56
2022-09-09T07:27:09.917Z,100778.22
2022-09-09T07:29:40.084Z,100776.47
2022-09-09T07:32:10.794Z,100784.19
2022-09-09T07:34:40.792Z,100785.84
2022-09-09T07:37:13.372Z,100777.19
2022-09-09T07:39:45.652Z,100790.22
2022-09-09T07:42:15.482Z,100784.22
2022-09-09T07:44:44.703Z,100751.41
2022-09-09T07:47:21.819Z,100785.13
2022-09-09T07:49:53.793Z,100808.44
2022-09-09T07:52:32.159Z,100807.59
2022-09-09T07:55:06.557Z,100799.72
2022-09-09T07:57:46.254Z,100808.31
2022-09-09T08:00:19.361Z,100799.69
2022-09-09T08:02:54.788Z,100799.78
2022-09-09T08:05:25.153Z,100779.91
2022-09-09T08:07:57.517Z,100769.59
2022-09-09T08:10:33.888Z,100800.69
2022-09-09T08:13:18.758Z,100804.13
2022-09-09T08:15:50.868Z,100793.63
2022-09-09T08:18:20.213Z,100811.78
2022-09-09T08:20:50.548Z,100810.06
2022-09-09T08:23:22.377Z,100808.38
2022-09-09T08:25:51.297Z,100799.69
2022-09-09T08:28:20.713Z,100797.13
2022-09-09T08:30:51.753Z,100820.53
2022-09-09T08:33:25.658Z,100790.22
2022-09-09T08:35:59.918Z,100808.34
2022-09-09T08:38:31.443Z,100817.75
2022-09-09T08:41:13.311Z,100826.34
2022-09-09T08:43:45.602Z,100828.19
2022-09-09T08:46:31.803Z,100827.38
2022-09-09T08:49:07.813Z,100819.63
2022-09-09T08:51:37.617Z,100826.59
2022-09-09T08:54:11.862Z,100821.38
2022-09-09T08:56:46.805Z,100820.53
2022-09-09T08:59:21.949Z,100818.81
2022-09-09T09:02:04.023Z,100810.19
2022-09-09T09:04:59.690Z,100826.59
2022-09-09T09:07:42.965Z,100815.28
2022-09-09T09:10:40.570Z,100816.97
2022-09-09T09:13:21.668Z,100812.63
2022-09-09T09:15:59.473Z,100820.38
2022-09-09T09:18:29.858Z,100816.81
2022-09-09T09:21:11.090Z,100815.88
2022-09-09T09:23:52.677Z,100803.91
2022-09-09T09:26:29.451Z,100830.78
2022-09-09T09:29:01.546Z,100841.97
2022-09-09T09:31:30.890Z,100829.75
2022-09-09T09:34:00.764Z,100831.56
2022-09-09T09:36:42.046Z,100827.28
2022-09-09T09:42:14.771Z,100834.72
2022-09-09T09:44:46.457Z,100808.03
2022-09-09T09:47:24.470Z,100825.34
2022-09-09T09:50:21.301Z,100820.94
2022-09-09T09:52:58.722Z,100810.59
2022-09-09T09:55:32.754Z,100825.56
2022-09-09T09:58:18.762Z,100839.50
2022-09-09T10:00:53.312Z,100835.22
2022-09-09T10:03:32.774Z,100836.94
2022-09-09T10:06:03.917Z,100837.78
2022-09-09T10:08:37.962Z,100832.56
2022-09-09T10:11:29.882Z,100827.38
2022-09-09T10:14:10.723Z,100815.22
2022-09-09T10:16:54.977Z,100815.91
2022-09-09T10:19:33.110Z,100833.38
2022-09-09T10:22:14.699Z,100833.41
2022-09-09T10:25:11.650Z,100837.66
2022-09-09T10:27:54.343Z,100837.75
2022-09-09T10:30:36.220Z,100803.16
2022-09-09T10:33:12.271Z,100816.16
2022-09-09T10:35:49.205Z,100821.34
2022-09-09T10:38:20.472Z,100831.72
2022-09-09T10:41:15.007Z,100840.38
2022-09-09T10:44:22.946Z,100842.03
2022-09-09T10:47:09.884Z,100821.94
2022-09-09T10:50:00.883Z,100815.00
2022-09-09T10:52:39.237Z,100820.31
2022-09-09T10:55:16.589Z,100833.44
2022-09-09T10:57:49.331Z,100836.88
2022-09-09T11:00:22.471Z,100840.25
2022-09-09T11:02:58.720Z,100824.44
2022-09-09T11:05:34.446Z,100808.78
2022-09-09T11:08:09.204Z,100812.22
2022-09-09T11:10:43.471Z,100825.13
2022-09-09T11:13:23.463Z,100832.13
2022-09-09T11:15:58.019Z,100828.84
2022-09-09T11:18:35.019Z,100842.72
2022-09-09T11:21:16.377Z,100835.75
2022-09-09T11:23:50.710Z,100835.78
2022-09-09T11:26:28.672Z,100835.72
2022-09-09T11:29:22.705Z,100841.81
2022-09-09T11:32:12.225Z,100828.91
2022-09-09T11:34:59.947Z,100827.28
2022-09-09T11:37:47.793Z,100815.16
2022-09-09T11:40:26.290Z,100823.78
2022-09-09T11:43:08.712Z,100846.84
2022-09-09T11:45:39.437Z,100843.22
2022-09-09T11:48:26.254Z,100814.53
2022-09-09T11:51:10.082Z,100822.66
2022-09-09T11:53:54.202Z,100837.41
2022-09-09T11:56:46.393Z,100845.34
2022-09-09T11:59:25.148Z,100859.31
2022-09-09T12:02:00.227Z,100829.97
2022-09-09T12:04:51.374Z,100842.94
2022-09-09T12:07:38.966Z,100836.06
2022-09-09T12:10:24.780Z,100839.56
2022-09-09T12:12:54.030Z,100830.03
2022-09-09T12:15:29.601Z,100826.63
2022-09-09T12:18:04.161Z,100841.28
2022-09-09T12:20:38.258Z,100830.91
2022-09-09T12:23:33.848Z,100827.47
2022-09-09T12:26:19.091Z,100832.66
2022-09-09T12:29:05.147Z,100831.78
2022-09-09T12:31:45.129Z,100843.88
2022-09-09T12:34:40.098Z,100817.09
2022-09-09T12:37:18.751Z,100806.72
2022-09-09T12:39:55.079Z,100828.34
2022-09-09T12:42:25.685Z,100839.53
2022-09-09T12:44:59.307Z,100803.22
2022-09-09T12:47:38.608Z,100825.69
2022-09-09T12:57:07.112Z,100832.59
2022-09-09T12:59:42.527Z,100829.13
2022-09-09T13:02:25.262Z,100799.75
2022-09-09T13:04:56.029Z,100824.84
2022-09-09T13:07:26.034Z,100822.22
2022-09-09T13:09:55.004Z,100830.06
2022-09-09T13:12:26.414Z,100827.47
2022-09-09T13:14:57.990Z,100834.41
2022-09-09T13:17:29.581Z,100837.84
2022-09-09T13:20:00.027Z,100837.84
2022-09-09T13:22:42.715Z,100825.72
2022-09-09T13:25:23.136Z,100828.31
2022-09-09T13:28:06.950Z,100836.09
2022-09-09T13:30:40.775Z,100813.66
2022-09-09T13:33:29.953Z,100831.78
2022-09-09T13:36:03.975Z,100835.25
2022-09-09T13:41:24.178Z,100815.31
2022-09-09T13:43:55.939Z,100805.78
2022-09-09T13:46:31.464Z,100828.28
2022-09-09T13:49:02.782Z,100823.94
2022-09-09T13:51:37.885Z,100805.78
2022-09-09T13:54:08.810Z,100815.28
2022-09-09T13:56:39.250Z,100819.53
2022-09-09T13:59:16.275Z,100821.25
2022-09-09T14:01:45.580Z,100812.59
2022-09-09T14:04:15.882Z,100820.31
2022-09-09T14:06:45.579Z,100809.84
2022-09-09T14:09:18.710Z,100819.34
2022-09-09T14:11:48.738Z,100825.31
2022-09-09T14:16:54.996Z,100813.97
2022-09-09T14:19:31.451Z,100820.84
2022-09-09T14:22:01.090Z,100811.34
2022-09-09T14:24:36.222Z,100811.22
2022-09-09T14:27:05.740Z,100814.81
2022-09-09T14:29:36.757Z,100823.63
2022-09-09T14:32:12.819Z,100823.63
2022-09-09T14:34:51.418Z,100826.25
2022-09-09T14:37:34.463Z,100801.19
2022-09-09T14:40:04.167Z,100841.03
2022-09-09T14:42:33.304Z,100809.00
2022-09-09T14:45:04.437Z,100822.06
2022-09-09T14:47:34.110Z,100816.13
2022-09-09T14:50:04.686Z,100810.94
2022-09-09T14:52:34.821Z,100829.13
2022-09-09T14:55:09.074Z,100821.38
2022-09-09T15:00:20.476Z,100827.47
2022-09-09T15:02:49.497Z,100828.34
2022-09-09T15:05:19.253Z,100823.13
2022-09-09T15:07:48.977Z,100822.28
2022-09-09T15:10:19.418Z,100824.00
2022-09-09T15:12:54.687Z,100827.44
2022-09-09T15:15:27.375Z,100834.34
2022-09-09T15:17:59.075Z,100826.56
2022-09-09T15:20:35.992Z,100841.22
2022-09-09T15:23:14.523Z,100827.34
2022-09-09T15:25:53.885Z,100829.03
2022-09-09T15:28:23.896Z,100846.25
2022-09-09T15:31:02.686Z,100847.94
2022-09-09T15:33:32.550Z,100846.16
2022-09-09T15:36:01.656Z,100847.03
2022-09-09T15:38:30.892Z,100842.69
2022-09-09T15:41:00.374Z,100831.41
2022-09-09T15:43:29.725Z,100848.69
2022-09-09T15:46:16.142Z,100850.38
2022-09-09T15:48:47.322Z,100857.28
2022-09-09T15:51:41.271Z,100861.53
2022-09-09T15:54:17.410Z,100856.38
2022-09-09T15:56:48.560Z,100849.44
2022-09-09T15:59:17.808Z,100864.06
2022-09-09T16:01:51.754Z,100860.63
2022-09-09T16:04:23.908Z,100871.78
2022-09-09T16:06:59.160Z,100874.25
2022-09-09T16:09:28.964Z,100870.81
2022-09-09T16:12:01.335Z,100875.03
2022-09-09T16:14:41.988Z,100885.31
2022-09-09T16:17:13.196Z,100880.97
2022-09-09T16:19:42.342Z,100879.22
2022-09-09T16:22:13.870Z,100878.34
2022-09-09T16:24:48.281Z,100879.19
2022-09-09T16:27:17.493Z,100879.94
2022-09-09T16:29:46.505Z,100882.50
2022-09-09T16:32:17.584Z,100870.38
2022-09-09T16:34:46.805Z,100884.28
2022-09-09T16:37:16.725Z,100890.31
2022-09-09T16:39:46.035Z,100897.19
2022-09-09T16:42:15.212Z,100894.50
2022-09-09T16:44:44.567Z,100897.03
2022-09-09T16:47:18.813Z,100890.16
2022-09-09T16:49:50.091Z,100889.25
2022-09-09T16:52:24.422Z,100903.88
2022-09-09T16:54:54.520Z,100900.31
2022-09-09T16:57:24.166Z,100915.75
2022-09-09T16:59:54.777Z,100913.84
2022-09-09T17:02:24.956Z,100917.13
2022-09-09T17:05:07.042Z,100907.69
2022-09-09T17:07:36.390Z,100919.94
2022-09-09T17:10:11.838Z,100910.50
2022-09-09T17:12:42.469Z,100913.06
2022-09-09T17:15:18.629Z,100919.94
2022-09-09T17:17:49.674Z,100919.91
2022-09-09T17:20:26.084Z,100908.59
2022-09-09T17:22:55.300Z,100899.84
2022-09-09T17:25:24.975Z,100904.97
2022-09-09T17:27:54.379Z,100921.34
2022-09-09T17:30:23.879Z,100906.53
2022-09-09T17:32:54.356Z,100924.84
2022-09-09T17:35:31.654Z,100922.31
2022-09-09T17:38:01.597Z,100927.41
2022-09-09T17:40:31.001Z,100924.72
2022-09-09T17:43:01.955Z,100927.09
2022-09-09T17:45:36.945Z,100929.44
2022-09-09T17:48:07.688Z,100931.81
2022-09-09T17:50:44.261Z,100935.16
2022-09-09T17:53:13.739Z,100941.03
2022-09-09T17:55:43.014Z,100914.03
2022-09-09T17:58:12.165Z,100935.69
2022-09-09T18:00:41.569Z,100938.31
2022-09-09T18:03:11.277Z,100933.97
2022-09-09T18:05:40.713Z,100933.00
2022-09-09T18:08:16.796Z,100929.59
2022-09-09T18:10:55.709Z,100892.47
2022-09-09T18:13:25.309Z,100917.81
2022-09-09T18:15:54.434Z,100923.97
2022-09-09T18:18:24.231Z,100926.47
2022-09-09T18:21:06.441Z,100936.91
2022-09-09T18:23:42.625Z,100924.97
2022-09-09T18:26:25.755Z,100919.66
2022-09-09T18:28:56.900Z,100935.97
2022-09-09T18:31:28.323Z,100925.72
2022-09-09T18:33:59.151Z,100926.59
2022-09-09T18:36:33.686Z,100926.66
2022-09-09T18:39:07.421Z,100919.72
2022-09-09T18:41:39.525Z,100898.06
2022-09-09T18:44:12.980Z,100924.72
2022-09-09T18:46:47.719Z,100935.06
2022-09-09T18:49:19.073Z,100888.00
2022-09-09T18:51:48.679Z,100937.59
2022-09-09T18:54:22.385Z,100928.97
2022-09-09T18:56:56.660Z,100936.63
2022-09-09T18:59:26.295Z,100933.84
2022-09-09T19:01:56.140Z,100925.78
2022-09-09T19:04:36.427Z,100939.59
2022-09-09T19:07:05.953Z,100941.69
2022-09-09T19:09:36.987Z,100937.25
2022-09-09T19:12:07.509Z,100948.50
2022-09-09T19:14:37.462Z,100952.69
2022-09-09T19:17:07.320Z,100953.97
2022-09-09T19:19:36.466Z,100952.44
2022-09-09T19:22:08.741Z,100950.72
2022-09-09T19:24:40.610Z,100942.94
2022-09-09T19:27:15.411Z,100948.81
2022-09-09T19:29:52.117Z,100943.53
2022-09-09T19:35:20.562Z,100952.41
2022-09-09T19:37:49.802Z,100955.50
2022-09-09T19:40:21.897Z,100954.78
2022-09-09T19:42:53.821Z,100948.72
2022-09-09T19:45:23.279Z,100961.72
2022-09-09T19:47:52.538Z,100976.03
2022-09-09T19:50:22.820Z,100945.41
2022-09-09T19:52:52.403Z,100962.50
2022-09-09T19:55:30.127Z,100969.09
2022-09-09T19:57:59.301Z,100967.28
2022-09-09T20:00:28.457Z,100965.41
2022-09-09T20:03:18.646Z,100971.50
2022-09-09T20:05:53.316Z,100965.97
2022-09-09T20:08:22.472Z,100973.38
2022-09-09T20:11:01.998Z,100969.28
2022-09-09T20:13:42.346Z,100975.31
2022-09-09T20:16:16.273Z,100979.59
2022-09-09T20:18:53.877Z,100944.94
2022-09-09T20:21:32.966Z,100983.91
2022-09-09T20:24:05.531Z,100977.97
2022-09-09T20:26:37.749Z,100972.00
2022-09-09T20:29:11.235Z,100974.72
2022-09-09T20:31:48.025Z,100988.63
2022-09-09T20:34:21.525Z,100974.84
2022-09-09T20:36:54.062Z,100989.81
2022-09-09T20:39:25.355Z,100974.25
2022-09-09T20:41:56.940Z,100982.09
2022-09-09T20:44:27.338Z,100981.16
2022-09-09T20:47:02.347Z,100986.38
2022-09-09T20:49:37.035Z,100986.41
2022-09-09T20:52:11.864Z,100985.56
2022-09-09T20:54:41.774Z,100987.38
2022-09-09T20:57:14.296Z,100985.63
2022-09-09T20:59:44.335Z,100984.81
2022-09-09T21:02:13.708Z,100980.34
2022-09-09T21:04:44.327Z,100990.72
2022-09-09T21:07:13.443Z,100992.47
2022-09-09T21:09:42.772Z,100993.31
2022-09-09T21:12:19.502Z,100972.41
2022-09-09T21:14:49.188Z,100988.88
2022-09-09T21:17:18.291Z,100987.00
2022-09-09T21:22:28.434Z,100997.75
2022-09-09T21:25:02.619Z,100992.47
2022-09-09T21:27:34.241Z,100993.41
2022-09-09T21:30:03.871Z,100992.69
2022-09-09T21:32:33.233Z,101001.31
2022-09-09T21:35:08.453Z,101006.50
2022-09-09T21:37:37.803Z,100989.19
2022-09-09T21:42:50.738Z,101009.22
2022-09-09T21:45:20.245Z,101004.03
2022-09-09T21:47:50.672Z,101009.94
2022-09-09T21:50:24.494Z,101009.88
2022-09-09T21:52:57.559Z,100990.53
2022-09-09T21:55:26.947Z,101014.97
2022-09-09T21:57:58.792Z,101008.91
2022-09-09T22:00:33.315Z,101005.44
2022-09-09T22:03:02.564Z,101007.97
2022-09-09T22:08:22.112Z,101004.44
2022-09-09T22:10:51.123Z,101008.72
2022-09-09T22:13:22.280Z,101003.47
2022-09-09T22:15:51.735Z,101015.50
2022-09-09T22:18:20.842Z,101008.53
2022-09-09T22:20:50.040Z,101005.88
2022-09-09T22:23:21.308Z,101002.97
2022-09-09T22:25:54.251Z,101002.91
2022-09-09T22:28:25.407Z,101016.41
2022-09-09T22:31:07.861Z,101002.91
2022-09-09T22:33:37.038Z,101004.00
2022-09-09T22:36:06.762Z,100998.03
2022-09-09T22:38:36.371Z,101006.81
2022-09-09T22:41:05.804Z,100996.56
2022-09-09T22:43:36.979Z,101004.34
2022-09-09T22:46:06.434Z,101001.66
2022-09-09T22:48:36.516Z,101005.75
2022-09-09T22:51:06.650Z,101015.03
2022-09-09T22:53:36.209Z,101002.03
2022-09-09T22:56:07.331Z,101005.34
2022-09-09T22:58:39.468Z,101008.63
2022-09-09T23:01:15.884Z,101015.38
2022-09-09T23:03:47.169Z,101006.72
2022-09-09T23:06:26.321Z,101015.38
2022-09-09T23:08:57.700Z,101005.25
2022-09-09T23:11:30.695Z,101009.66
2022-09-09T23:14:03.577Z,101013.88
2022-09-09T23:16:39.233Z,101000.47
2022-09-09T23:19:11.601Z,101008.72
2022-09-09T23:21:47.804Z,101006.69
2022-09-09T23:24:18.755Z,101009.75
2022-09-09T23:26:52.873Z,101004.22
2022-09-09T23:29:23.795Z,101009.13
2022-09-09T23:31:52.907Z,101020.88
2022-09-09T23:34:21.967Z,101015.47
2022-09-09T23:36:56.226Z,101017.06
2022-09-09T23:39:25.469Z,101015.84
2022-09-09T23:41:54.612Z,101024.31
2022-09-09T23:47:01.528Z,101007.09
2022-09-09T23:49:30.619Z,101027.22
2022-09-09T23:52:00.913Z,101013.75
2022-09-09T23:54:40.076Z,101022.72
2022-09-09T23:57:09.117Z,101029.84
2022-09-09T23:59:40.059Z,101029.28
